Time;durP1;ratioP1;P1;durP2;ratioP2;P2;SDS_P1;SDS_P2;PMS_P1;PMS_P2;Temp;Humidity;BMP_temperature;BMP_pressure;BME280_temperature;BME280_humidity;BME280_pressure;Samples;Min_cycle;Max_cycle;Signal;HPM_P1;HPM_P2
2021/12/21 00:00:53;;;;;;;;;;;-3.20;99.90;;;;;;6251584;22;19938;-92
2021/12/21 00:03:28;;;;;;;;;;;-3.30;99.90;;;;;;6251122;22;19915;-90
2021/12/21 00:06:03;;;;;;;;;;;-2.40;99.90;;;;;;6251288;22;20073;-91
2021/12/21 00:08:37;;;;;;;;;;;-3.20;99.90;;;;;;6227795;22;20221;-91
2021/12/21 00:11:13;;;;;;;;;;;-3.50;99.90;;;;;;6227097;22;19919;-91
2021/12/21 00:14:07;;;;;;;;;;;-3.70;99.90;;;;;;6226627;22;19915;-92
2021/12/21 00:19:23;;;;;;;;;;;-3.40;99.90;;;;;;6251224;22;19915;-90
2021/12/21 00:21:59;;;;;;;;;;;-1.70;99.90;;;;;;6254376;22;20320;-93
2021/12/21 00:24:31;;;;;;;;;;;-2.70;99.90;;;;;;6227535;22;19915;-92
2021/12/21 00:27:07;;;;;;;;;;;-3.50;99.90;;;;;;6227150;22;20373;-91
2021/12/21 00:29:38;;;;;;;;;;;-4.60;99.90;;;;;;6227595;22;19992;-92
2021/12/21 00:32:04;;;;;;;;;;;-3.90;99.90;;;;;;6251120;22;19915;-92
2021/12/21 00:34:30;;;;;;;;;;;-4.00;99.90;;;;;;6250507;22;20010;-90
2021/12/21 00:37:03;;;;;;;;;;;-3.30;99.90;;;;;;6225108;22;20251;-91
2021/12/21 00:39:29;;;;;;;;;;;-3.70;99.90;;;;;;6250665;22;19942;-91
2021/12/21 00:42:04;;;;;;;;;;;;;;;;;;;;;
2021/12/21 00:44:40;;;;;;;;;;;-3.80;99.90;;;;;;6252704;22;20217;-92
2021/12/21 00:47:06;;;;;;;;;;;-3.70;99.90;;;;;;6225961;22;19915;-91
2021/12/21 00:49:44;;;;;;;;;;;-3.50;99.90;;;;;;6224632;22;19965;-90
2021/12/21 00:52:17;;;;;;;;;;;-3.40;99.90;;;;;;6252968;22;20285;-90
2021/12/21 00:54:45;;;;;;;;;;;-3.40;99.90;;;;;;6250872;22;19998;-91
2021/12/21 00:57:11;;;;;;;;;;;-3.50;99.90;;;;;;6250648;22;19919;-91
2021/12/21 00:59:39;;;;;;;;;;;-3.80;99.90;;;;;;6250623;22;19969;-90
2021/12/21 01:02:05;;;;;;;;;;;-2.70;99.90;;;;;;6250115;22;20304;-91
2021/12/21 01:04:37;;;;;;;;;;;-4.30;99.90;;;;;;6225067;22;20307;-90
2021/12/21 01:15:37;;;;;;;;;;;-3.70;99.90;;;;;;6222608;22;20324;-90
2021/12/21 01:18:15;;;;;;;;;;;-3.80;99.90;;;;;;6255736;22;19919;-92
2021/12/21 01:20:48;;;;;;;;;;;-3.50;99.90;;;;;;6227513;22;19915;-91
2021/12/21 01:25:54;;;;;;;;;;;-3.90;99.90;;;;;;6251214;22;19916;-91
2021/12/21 01:36:03;;;;;;;;;;;-3.90;99.90;;;;;;6253777;22;19923;-91
2021/12/21 01:38:38;;;;;;;;;;;-3.90;99.90;;;;;;6227084;22;19919;-90
2021/12/21 01:41:20;;;;;;;;;;;;;;;;;;;;;
2021/12/21 01:44:00;;;;;;;;;;;-4.00;99.90;;;;;;6254572;22;19915;-90
2021/12/21 01:52:12;;;;;;;;;;;-3.80;99.90;;;;;;6206729;22;19993;-91
2021/12/21 01:54:38;;;;;;;;;;;-3.90;99.90;;;;;;6251989;22;19943;-90
2021/12/21 01:57:06;;;;;;;;;;;-3.80;99.90;;;;;;6228993;22;20240;-89
2021/12/21 01:59:32;;;;;;;;;;;-3.80;99.90;;;;;;6254798;22;19915;-90
2021/12/21 02:02:00;;;;;;;;;;;-3.80;99.90;;;;;;6253744;22;20332;-91
2021/12/21 02:04:30;;;;;;;;;;;-3.70;99.90;;;;;;6253005;22;19923;-90
2021/12/21 02:06:59;;;;;;;;;;;-3.80;99.90;;;;;;6278127;22;19921;-90
2021/12/21 02:09:33;;;;;;;;;;;-3.80;99.90;;;;;;6226477;22;19922;-89
2021/12/21 02:12:01;;;;;;;;;;;-3.60;99.90;;;;;;6253938;22;19938;-91
2021/12/21 02:14:27;;;;;;;;;;;-3.90;99.90;;;;;;6226208;22;19915;-90
2021/12/21 02:17:11;;;;;;;;;;;-4.00;99.90;;;;;;6227194;22;19920;-91
2021/12/21 02:19:40;;;;;;;;;;;-3.40;99.90;;;;;;6234346;22;20391;-91
2021/12/21 02:22:12;;;;;;;;;;;-4.00;99.90;;;;;;6254913;22;19930;-90
2021/12/21 02:24:50;;;;;;;;;;;-3.30;99.90;;;;;;6228651;22;20368;-90
2021/12/21 02:27:28;;;;;;;;;;;-2.80;99.90;;;;;;6229824;22;19919;-89
2021/12/21 02:29:54;;;;;;;;;;;-4.10;99.90;;;;;;6229283;22;19916;-91
2021/12/21 02:32:23;;;;;;;;;;;-3.90;99.90;;;;;;6226081;22;19990;-91
2021/12/21 02:34:54;;;;;;;;;;;-4.10;99.90;;;;;;6253331;22;19915;-90
2021/12/21 02:37:32;;;;;;;;;;;;;;;;;;;;;
2021/12/21 02:39:58;;;;;;;;;;;-2.30;99.90;;;;;;6254786;22;19919;-91
2021/12/21 02:42:24;;;;;;;;;;;-4.10;99.90;;;;;;6251658;22;19969;-91
2021/12/21 02:44:50;;;;;;;;;;;-4.20;99.90;;;;;;6226476;22;19990;-90
2021/12/21 02:47:25;;;;;;;;;;;-4.20;99.90;;;;;;6251155;22;19915;-90
2021/12/21 02:49:50;;;;;;;;;;;-4.10;99.90;;;;;;6228292;22;19923;-90
2021/12/21 02:52:16;;;;;;;;;;;-4.10;99.90;;;;;;6251405;22;19915;-90
2021/12/21 02:54:44;;;;;;;;;;;-4.20;99.90;;;;;;6225690;22;19929;-90
2021/12/21 02:57:09;;;;;;;;;;;-4.10;99.90;;;;;;6226317;22;19919;-91
2021/12/21 02:59:42;;;;;;;;;;;-4.00;99.90;;;;;;6251147;22;19952;-89
2021/12/21 03:02:10;;;;;;;;;;;-3.90;99.90;;;;;;6227219;22;19919;-91
2021/12/21 03:04:36;;;;;;;;;;;-4.20;99.90;;;;;;6276381;22;19916;-90
2021/12/21 03:09:54;;;;;;;;;;;-4.30;99.90;;;;;;6252258;22;19941;-90
2021/12/21 03:14:51;;;;;;;;;;;-2.50;99.90;;;;;;6251500;22;19915;-90
2021/12/21 03:17:16;;;;;;;;;;;-4.10;99.90;;;;;;6225681;22;19973;-90
2021/12/21 03:19:47;;;;;;;;;;;-3.20;99.90;;;;;;6225958;22;19973;-90
2021/12/21 03:22:20;;;;;;;;;;;-4.20;99.90;;;;;;6226744;22;19938;-89
2021/12/21 03:24:45;;;;;;;;;;;-4.10;99.90;;;;;;6252092;22;19939;-90
2021/12/21 03:27:29;;;;;;;;;;;-1.80;99.90;;;;;;6226049;22;19969;-91
2021/12/21 03:30:02;;;;;;;;;;;-3.90;99.90;;;;;;6250831;22;20075;-90
2021/12/21 03:32:27;;;;;;;;;;;-2.40;99.90;;;;;;6250991;22;19919;-91
2021/12/21 03:34:58;;;;;;;;;;;-4.50;99.90;;;;;;6250745;22;20278;-89
2021/12/21 03:37:26;;;;;;;;;;;-4.10;99.90;;;;;;6226140;22;19919;-90
2021/12/21 03:39:58;;;;;;;;;;;-4.20;99.90;;;;;;6225946;22;19922;-89
2021/12/21 03:42:24;;;;;;;;;;;-4.00;99.90;;;;;;6225618;22;19915;-90
2021/12/21 03:44:50;;;;;;;;;;;-4.10;99.90;;;;;;6225702;22;20334;-90
2021/12/21 03:47:17;;;;;;;;;;;-4.20;99.90;;;;;;6225286;22;19915;-90
2021/12/21 03:49:55;;;;;;;;;;;-2.60;99.90;;;;;;6225616;22;20197;-90
2021/12/21 03:52:23;;;;;;;;;;;-4.00;99.90;;;;;;6251649;22;20324;-90
2021/12/21 03:54:53;;;;;;;;;;;-3.90;99.90;;;;;;6225330;22;19915;-90
2021/12/21 03:57:19;;;;;;;;;;;-4.30;99.90;;;;;;6251252;22;19946;-90
2021/12/21 03:59:52;;;;;;;;;;;-4.30;99.90;;;;;;6250981;22;19915;-91
2021/12/21 04:02:21;;;;;;;;;;;-4.50;99.90;;;;;;6252448;22;19989;-90
2021/12/21 04:04:48;;;;;;;;;;;-4.10;99.90;;;;;;6251452;22;19990;-90
2021/12/21 04:07:14;;;;;;;;;;;-4.40;99.90;;;;;;6251157;22;19990;-90
2021/12/21 04:09:42;;;;;;;;;;;-4.80;99.90;;;;;;6226507;22;19951;-90
2021/12/21 04:12:13;;;;;;;;;;;-4.40;99.90;;;;;;6256258;22;19915;-90
2021/12/21 04:14:42;;;;;;;;;;;-3.00;99.90;;;;;;6256285;22;20350;-89
2021/12/21 04:17:20;;;;;;;;;;;-3.20;99.90;;;;;;6254385;22;19984;-91
2021/12/21 04:19:46;;;;;;;;;;;-4.00;99.90;;;;;;6255133;22;19915;-90
2021/12/21 04:22:12;;;;;;;;;;;-4.60;99.90;;;;;;6227388;22;19963;-90
2021/12/21 04:24:38;;;;;;;;;;;-4.60;99.90;;;;;;6225435;22;19926;-91
2021/12/21 04:27:04;;;;;;;;;;;-4.60;99.90;;;;;;6252520;22;20001;-89
2021/12/21 04:29:32;;;;;;;;;;;-4.20;99.90;;;;;;6249887;22;19916;-90
2021/12/21 04:32:06;;;;;;;;;;;-4.60;99.90;;;;;;6251228;22;19919;-90
2021/12/21 04:34:34;;;;;;;;;;;-4.60;99.90;;;;;;6252485;22;20282;-90
2021/12/21 04:37:00;;;;;;;;;;;-3.60;99.90;;;;;;6227244;22;19951;-90
2021/12/21 04:42:02;;;;;;;;;;;-4.40;99.90;;;;;;6252253;22;19957;-91
2021/12/21 04:44:37;;;;;;;;;;;-2.50;99.90;;;;;;6251109;22;20002;-90
2021/12/21 04:47:04;;;;;;;;;;;-4.40;99.90;;;;;;6253776;22;20393;-90
2021/12/21 04:49:42;;;;;;;;;;;-4.70;99.90;;;;;;6251095;22;20263;-90
2021/12/21 04:52:08;;;;;;;;;;;-4.80;99.90;;;;;;6252372;22;20304;-90
2021/12/21 04:54:44;;;;;;;;;;;-4.70;99.90;;;;;;6225840;22;19955;-90
2021/12/21 04:57:11;;;;;;;;;;;-5.00;99.90;;;;;;6254358;22;19947;-90
2021/12/21 04:59:36;;;;;;;;;;;-4.40;99.90;;;;;;6252004;22;19915;-91
2021/12/21 05:02:02;;;;;;;;;;;-4.50;99.90;;;;;;6251619;22;20000;-90
2021/12/21 05:04:28;;;;;;;;;;;-4.60;99.90;;;;;;6251818;22;19919;-91
2021/12/21 05:06:57;;;;;;;;;;;-4.50;99.90;;;;;;6226938;22;19986;-90
2021/12/21 05:09:26;;;;;;;;;;;-4.70;99.90;;;;;;6254232;22;19977;-90
2021/12/21 05:11:59;;;;;;;;;;;-4.90;99.90;;;;;;6230949;22;19915;-90
2021/12/21 05:14:27;;;;;;;;;;;-4.70;99.90;;;;;;6255043;22;19930;-91
2021/12/21 05:16:53;;;;;;;;;;;-4.70;99.90;;;;;;6229534;22;19969;-91
2021/12/21 05:19:18;;;;;;;;;;;-5.70;99.90;;;;;;6251922;22;19919;-90
2021/12/21 05:21:47;;;;;;;;;;;-4.70;99.90;;;;;;6225413;22;19915;-90
2021/12/21 05:24:13;;;;;;;;;;;-5.40;99.90;;;;;;6225800;22;19916;-92
2021/12/21 05:26:46;;;;;;;;;;;-4.80;99.90;;;;;;6250941;22;20389;-90
2021/12/21 05:29:20;;;;;;;;;;;-4.90;99.90;;;;;;6227559;22;20033;-90
2021/12/21 05:31:48;;;;;;;;;;;-4.50;99.90;;;;;;6250903;22;19915;-91
2021/12/21 05:34:19;;;;;;;;;;;-4.80;99.90;;;;;;6225449;22;19919;-90
2021/12/21 05:36:51;;;;;;;;;;;-2.60;99.90;;;;;;6227848;22;20317;-89
2021/12/21 05:39:21;;;;;;;;;;;-4.70;99.90;;;;;;6252140;22;19915;-90
2021/12/21 05:41:54;;;;;;;;;;;-4.10;99.90;;;;;;6227887;22;19994;-90
2021/12/21 05:44:21;;;;;;;;;;;-4.80;99.90;;;;;;6228775;22;19923;-91
2021/12/21 05:46:50;;;;;;;;;;;-4.80;99.90;;;;;;6277432;22;19915;-91
2021/12/21 05:49:18;;;;;;;;;;;-3.40;99.90;;;;;;6252369;22;19989;-91
2021/12/21 05:51:45;;;;;;;;;;;-4.80;99.90;;;;;;6252625;22;19922;-90
2021/12/21 05:54:21;;;;;;;;;;;;;;;;;;;;;
2021/12/21 05:56:49;;;;;;;;;;;-4.60;99.90;;;;;;6254392;22;19920;-89
2021/12/21 05:59:15;;;;;;;;;;;-4.60;99.90;;;;;;6252382;22;20378;-90
2021/12/21 06:01:40;;;;;;;;;;;-4.30;99.90;;;;;;6227818;22;19922;-90
2021/12/21 06:04:09;;;;;;;;;;;-4.60;99.90;;;;;;6233067;22;19975;-90
2021/12/21 06:06:35;;;;;;;;;;;-4.40;99.90;;;;;;6229415;22;20005;-91
2021/12/21 06:09:11;;;;;;;;;;;-4.40;99.90;;;;;;6228626;22;19915;-90
2021/12/21 06:11:45;;;;;;;;;;;-4.20;99.90;;;;;;6230047;22;19919;-91
2021/12/21 06:14:51;;;;;;;;;;;-4.60;99.90;;;;;;6253461;22;19922;-91
2021/12/21 06:25:41;;;;;;;;;;;-3.00;99.90;;;;;;6208098;22;19922;-91
2021/12/21 06:28:23;;;;;;;;;;;-4.60;99.90;;;;;;6256905;22;20414;-90
2021/12/21 06:30:51;;;;;;;;;;;-5.20;99.90;;;;;;6226183;22;19916;-90
2021/12/21 06:33:20;;;;;;;;;;;-4.40;99.90;;;;;;6226536;22;19997;-91
2021/12/21 06:35:48;;;;;;;;;;;-4.80;99.90;;;;;;6251977;22;19915;-89
2021/12/21 06:38:16;;;;;;;;;;;-4.70;99.90;;;;;;6252663;22;19969;-91
2021/12/21 06:40:41;;;;;;;;;;;-4.90;99.90;;;;;;6227036;22;20352;-91
2021/12/21 06:43:12;;;;;;;;;;;-4.90;99.90;;;;;;6226412;22;19930;-90
2021/12/21 06:51:10;;;;;;;;;;;-4.80;99.90;;;;;;6255219;22;19957;-90
2021/12/21 06:53:39;;;;;;;;;;;-4.70;99.90;;;;;;6255263;22;19915;-90
2021/12/21 06:56:07;;;;;;;;;;;-3.10;99.90;;;;;;6252094;22;19915;-88
2021/12/21 06:58:32;;;;;;;;;;;-3.10;99.90;;;;;;6256912;22;19919;-90
2021/12/21 07:01:01;;;;;;;;;;;-2.50;99.90;;;;;;6230395;22;19920;-90
2021/12/21 07:03:26;;;;;;;;;;;-4.50;99.90;;;;;;6253612;22;20312;-90
2021/12/21 07:05:54;;;;;;;;;;;-4.60;99.90;;;;;;6228250;22;19923;-90
2021/12/21 07:08:25;;;;;;;;;;;-4.70;99.90;;;;;;6227293;22;19921;-90
2021/12/21 07:11:05;;;;;;;;;;;-4.70;99.90;;;;;;6228382;22;19915;-89
2021/12/21 07:19:02;;;;;;;;;;;-4.70;99.90;;;;;;6255379;22;19998;-90
2021/12/21 07:21:27;;;;;;;;;;;-4.70;99.90;;;;;;6227320;22;19919;-89
2021/12/21 07:23:55;;;;;;;;;;;-4.80;99.90;;;;;;6251259;22;19915;-89
2021/12/21 07:26:26;;;;;;;;;;;-3.50;99.90;;;;;;6226819;22;19986;-90
2021/12/21 07:28:52;;;;;;;;;;;-5.50;99.90;;;;;;6252325;22;19923;-90
2021/12/21 07:31:20;;;;;;;;;;;-4.70;99.90;;;;;;6253088;22;19929;-90
2021/12/21 07:33:49;;;;;;;;;;;-4.90;99.90;;;;;;6252448;22;20247;-89
2021/12/21 07:36:15;;;;;;;;;;;-3.00;99.90;;;;;;6226851;22;19915;-89
2021/12/21 07:38:43;;;;;;;;;;;-4.80;99.90;;;;;;6227256;22;20286;-89
2021/12/21 07:41:10;;;;;;;;;;;-4.80;99.90;;;;;;6228455;22;19922;-91
2021/12/21 07:43:38;;;;;;;;;;;-4.80;99.90;;;;;;6251509;22;19921;-89
2021/12/21 07:46:04;;;;;;;;;;;-4.90;99.90;;;;;;6251889;22;19994;-89
2021/12/21 07:48:32;;;;;;;;;;;-4.90;99.90;;;;;;6226362;22;19923;-89
2021/12/21 07:51:01;;;;;;;;;;;-4.80;99.90;;;;;;6227151;22;19919;-89
2021/12/21 07:53:27;;;;;;;;;;;-5.00;99.90;;;;;;6254909;22;20346;-89
2021/12/21 07:55:53;;;;;;;;;;;-4.90;99.90;;;;;;6227461;22;19993;-89
2021/12/21 07:58:19;;;;;;;;;;;-4.10;99.90;;;;;;6227360;22;20240;-89
2021/12/21 08:00:47;;;;;;;;;;;-5.10;99.90;;;;;;6226269;22;19941;-89
2021/12/21 08:03:15;;;;;;;;;;;-5.00;99.90;;;;;;6226889;22;19915;-90
2021/12/21 08:05:48;;;;;;;;;;;-5.00;99.90;;;;;;6252315;22;19915;-88
2021/12/21 08:08:18;;;;;;;;;;;-4.90;99.90;;;;;;6254739;22;20342;-89
2021/12/21 08:10:49;;;;;;;;;;;-4.90;99.90;;;;;;6227410;22;19915;-89
2021/12/21 08:13:15;;;;;;;;;;;-5.00;99.90;;;;;;6252413;22;19982;-90
2021/12/21 08:15:41;;;;;;;;;;;-5.00;99.90;;;;;;6250636;22;20276;-90
2021/12/21 08:18:09;;;;;;;;;;;-4.50;99.90;;;;;;6225080;22;20336;-90
2021/12/21 08:20:37;;;;;;;;;;;-5.00;99.90;;;;;;6225998;22;19915;-89
2021/12/21 08:23:05;;;;;;;;;;;-4.90;99.90;;;;;;6250750;22;19922;-88
2021/12/21 08:25:34;;;;;;;;;;;-4.20;99.90;;;;;;6250795;22;20316;-89
2021/12/21 08:28:02;;;;;;;;;;;-4.90;99.90;;;;;;6251301;22;20373;-89
2021/12/21 08:30:28;;;;;;;;;;;-5.00;99.90;;;;;;6250335;22;19919;-90
2021/12/21 08:32:56;;;;;;;;;;;-4.70;99.90;;;;;;6225406;22;19922;-89
2021/12/21 08:35:22;;;;;;;;;;;-4.90;99.90;;;;;;6224815;22;19965;-90
2021/12/21 08:38:03;;;;;;;;;;;-4.50;99.90;;;;;;6249465;22;19923;-90
2021/12/21 08:40:38;;;;;;;;;;;-4.50;99.90;;;;;;6250546;22;20262;-90
2021/12/21 08:44:02;;;;;;;;;;;-4.60;99.90;;;;;;6226521;22;20351;-92
2021/12/21 08:46:07;;;;;;;;;;;-4.60;99.90;;;;;;6241984;22;19922;-89
2021/12/21 08:48:43;;;;;;;;;;;;;;;;;;;;;
2021/12/21 08:51:13;;;;;;;;;;;-4.30;99.90;;;;;;6252716;22;20005;-91
2021/12/21 08:53:47;;;;;;;;;;;-4.50;99.90;;;;;;6224532;22;19941;-89
2021/12/21 08:56:16;;;;;;;;;;;-4.10;99.90;;;;;;6256948;22;19915;-89
2021/12/21 08:58:45;;;;;;;;;;;-4.30;99.90;;;;;;6254372;22;19919;-91
2021/12/21 09:01:13;;;;;;;;;;;-4.00;99.90;;;;;;6252589;22;19919;-90
2021/12/21 09:03:43;;;;;;;;;;;-3.40;99.90;;;;;;6226686;22;19922;-93
2021/12/21 09:06:26;;;;;;;;;;;-4.10;99.90;;;;;;6251907;22;19915;-91
2021/12/21 09:09:02;;;;;;;;;;;-4.00;99.90;;;;;;6252113;22;19965;-91
2021/12/21 09:11:38;;;;;;;;;;;-3.80;99.90;;;;;;6252785;22;19919;-93
2021/12/21 09:14:09;;;;;;;;;;;-3.90;99.90;;;;;;6253880;22;19922;-92
2021/12/21 09:16:45;;;;;;;;;;;-3.80;99.90;;;;;;6252483;22;19986;-91
2021/12/21 09:19:30;;;;;;;;;;;-3.40;99.90;;;;;;6251935;22;19954;-91
2021/12/21 09:22:01;;;;;;;;;;;-3.10;99.90;;;;;;6251724;22;20393;-92
2021/12/21 09:24:37;;;;;;;;;;;;;;;;;;;;;
2021/12/21 09:27:20;;;;;;;;;;;-1.40;99.90;;;;;;6253036;22;19919;-92
2021/12/21 09:30:09;;;;;;;;;;;-2.30;99.90;;;;;;6255053;22;19957;-91
2021/12/21 09:32:39;;;;;;;;;;;-1.90;99.90;;;;;;6253425;22;19929;-91
2021/12/21 09:35:33;;;;;;;;;;;;;;;;;;;;;
2021/12/21 09:38:22;;;;;;;;;;;-3.20;99.90;;;;;;6252228;22;20286;-92
2021/12/21 09:40:53;;;;;;;;;;;-1.70;99.90;;;;;;6250111;22;19921;-91
2021/12/21 09:43:24;;;;;;;;;;;-2.80;99.90;;;;;;6250651;22;19990;-92
2021/12/21 09:45:54;;;;;;;;;;;-2.80;99.90;;;;;;6225806;22;20342;-90
2021/12/21 09:48:41;;;;;;;;;;;-2.80;99.90;;;;;;6225049;22;20026;-92
2021/12/21 09:54:10;;;;;;;;;;;;;;;;;;;;;
2021/12/21 09:56:43;;;;;;;;;;;-2.50;99.90;;;;;;6251653;22;19969;-92
2021/12/21 10:02:09;;;;;;;;;;;-1.70;99.90;;;;;;6253658;22;20275;-92
2021/12/21 10:04:57;;;;;;;;;;;-2.20;99.90;;;;;;6250288;22;19961;-91
2021/12/21 10:07:46;;;;;;;;;;;-2.20;99.90;;;;;;6251997;22;19986;-91
2021/12/21 10:10:33;;;;;;;;;;;-1.90;99.90;;;;;;6234355;22;19973;-91
2021/12/21 10:13:18;;;;;;;;;;;-1.90;99.90;;;;;;6254301;22;20259;-91
2021/12/21 10:19:02;;;;;;;;;;;;;;;;;;;;;
2021/12/21 10:21:54;;;;;;;;;;;-1.30;99.90;;;;;;6277082;22;19919;-92
2021/12/21 10:30:59;;;;;;;;;;;;;;;;;;;;;
2021/12/21 10:33:44;;;;;;;;;;;;;;;;;;;;;
2021/12/21 10:36:16;;;;;;;;;;;-0.20;99.90;;;;;;6256805;22;19926;-92
2021/12/21 10:38:58;;;;;;;;;;;0.70;99.90;;;;;;6255790;22;20006;-91
2021/12/21 10:41:58;;;;;;;;;;;;;;;;;;;;;
2021/12/21 10:44:33;;;;;;;;;;;;;;;;;;;;;
2021/12/21 10:47:12;;;;;;;;;;;2.70;99.90;;;;;;6265192;22;19965;-92
2021/12/21 10:49:40;;;;;;;;;;;1.70;99.90;;;;;;6257676;22;19950;-92
2021/12/21 10:52:07;;;;;;;;;;;3.10;99.90;;;;;;6251463;22;20389;-91
2021/12/21 10:54:40;;;;;;;;;;;1.70;99.90;;;;;;6250474;22;19939;-90
2021/12/21 10:57:14;;;;;;;;;;;3.30;99.90;;;;;;6250182;22;19951;-91
2021/12/21 10:59:57;;;;;;;;;;;3.90;99.90;;;;;;6252432;22;20295;-92
2021/12/21 11:02:33;;;;;;;;;;;3.70;99.90;;;;;;6254312;22;19920;-91
2021/12/21 11:05:03;;;;;;;;;;;4.40;99.90;;;;;;6252124;22;19938;-93
2021/12/21 11:11:53;;;;;;;;;;;;;;;;;;;;;
2021/12/21 18:46:10;;;;;;;;;;;-2.70;99.90;;;;;;6344739;22;19925;-92
2021/12/21 18:49:06;;;;;;;;;;;;;;;;;;;;;
2021/12/21 18:58:14;;;;;;;;;;;-2.60;99.90;;;;;;6252318;23;19921;-92
2021/12/21 19:07:26;;;;;;;;;;;;;;;;;;;;;
2021/12/21 19:36:31;;;;;;;;;;;;;;;;;;;;;
2021/12/21 19:42:17;;;;;;;;;;;;;;;;;;;;;
2021/12/21 19:45:30;;;;;;;;;;;;;;;;;;;;;
2021/12/21 19:48:26;;;;;;;;;;;;;;;;;;;;;
2021/12/21 19:50:57;;;;;;;;;;;-1.50;99.90;;;;;;6187755;23;19916;-93
2021/12/21 19:53:25;;;;;;;;;;;-2.90;99.90;;;;;;6144125;23;20197;-90
2021/12/21 19:55:55;;;;;;;;;;;-3.10;99.90;;;;;;6164409;23;19920;-89
2021/12/21 19:58:21;;;;;;;;;;;-3.00;99.90;;;;;;6258860;22;19957;-88
2021/12/21 20:00:47;;;;;;;;;;;-3.10;99.90;;;;;;6261945;22;19914;-89
2021/12/21 20:03:21;;;;;;;;;;;-3.10;99.90;;;;;;6262332;22;19918;-91
2021/12/21 20:05:52;;;;;;;;;;;-3.10;99.90;;;;;;6261882;22;19915;-91
2021/12/21 20:08:46;;;;;;;;;;;-3.20;99.90;;;;;;6260544;22;19914;-91
2021/12/21 20:11:38;;;;;;;;;;;-3.00;99.90;;;;;;6263890;22;19915;-92
2021/12/21 20:14:06;;;;;;;;;;;-1.80;99.90;;;;;;6261966;22;19915;-90
2021/12/21 20:20:04;;;;;;;;;;;-3.10;99.90;;;;;;6317674;22;19914;-93
2021/12/21 20:22:43;;;;;;;;;;;;;;;;;;;;;
2021/12/21 20:28:15;;;;;;;;;;;-3.80;99.90;;;;;;6303595;22;19914;-91
2021/12/21 20:30:44;;;;;;;;;;;-3.20;99.90;;;;;;6259616;22;19946;-90
2021/12/21 20:33:44;;;;;;;;;;;;;;;;;;;;;
2021/12/21 20:36:49;;;;;;;;;;;;;;;;;;;;;
2021/12/21 20:48:42;;;;;;;;;;;;;;;;;;;;;
2021/12/21 20:51:15;;;;;;;;;;;-1.30;99.90;;;;;;6296750;22;19914;-92
2021/12/21 20:53:43;;;;;;;;;;;-3.30;99.90;;;;;;6286236;22;20014;-90
2021/12/21 20:56:09;;;;;;;;;;;-2.60;99.90;;;;;;6265913;22;19919;-91
2021/12/21 20:58:36;;;;;;;;;;;-3.20;99.90;;;;;;6259466;22;19925;-90
2021/12/21 21:01:23;;;;;;;;;;;-3.30;99.90;;;;;;6259208;22;19954;-89
2021/12/21 21:03:54;;;;;;;;;;;-2.60;99.90;;;;;;6268924;22;19936;-90
2021/12/21 21:06:20;;;;;;;;;;;-3.00;99.90;;;;;;6260214;22;19968;-89
2021/12/21 21:12:23;;;;;;;;;;;;;;;;;;;;;
2021/12/21 21:15:00;;;;;;;;;;;;;;;;;;;;;
2021/12/21 21:18:00;;;;;;;;;;;;;;;;;;;;;
2021/12/21 21:33:13;;;;;;;;;;;;;;;;;;;;;
2021/12/21 21:35:49;;;;;;;;;;;-3.00;99.90;;;;;;6200576;23;19991;-91
2021/12/21 21:38:35;;;;;;;;;;;-3.40;99.90;;;;;;6179350;23;19959;-91
2021/12/21 21:41:23;;;;;;;;;;;-3.90;99.90;;;;;;6174012;23;19923;-91
2021/12/21 21:44:12;;;;;;;;;;;-2.00;99.90;;;;;;6174091;23;20078;-92
2021/12/21 21:46:51;;;;;;;;;;;;;;;;;;;;;
2021/12/21 21:49:20;;;;;;;;;;;-3.20;99.90;;;;;;6200521;23;19923;-91
2021/12/21 21:55:11;;;;;;;;;;;;;;;;;;;;;
2021/12/21 21:57:55;;;;;;;;;;;;;;;;;;;;;
2021/12/21 22:00:34;;;;;;;;;;;-3.20;99.90;;;;;;6297270;22;19914;-91
2021/12/21 22:03:15;;;;;;;;;;;-3.30;99.90;;;;;;6267582;22;19997;-92
2021/12/21 22:05:54;;;;;;;;;;;-3.30;99.90;;;;;;6266474;22;19914;-91
2021/12/21 22:08:42;;;;;;;;;;;;;;;;;;;;;
2021/12/21 22:11:40;;;;;;;;;;;-3.20;99.90;;;;;;6288243;22;19954;-92
2021/12/21 22:14:16;;;;;;;;;;;-3.10;99.90;;;;;;6302009;22;19922;-91
2021/12/21 22:16:56;;;;;;;;;;;-3.10;99.90;;;;;;6264395;22;19919;-93
2021/12/21 22:19:48;;;;;;;;;;;-1.30;99.90;;;;;;6273215;22;19934;-92
2021/12/21 22:22:20;;;;;;;;;;;-3.30;99.90;;;;;;6268287;22;19915;-92
2021/12/21 22:24:54;;;;;;;;;;;-4.40;99.90;;;;;;6261848;22;19914;-93
2021/12/21 22:27:31;;;;;;;;;;;-1.60;99.90;;;;;;6266289;22;19998;-93
2021/12/21 22:30:27;;;;;;;;;;;;;;;;;;;;;
2021/12/21 22:37:02;;;;;;;;;;;-1.90;99.90;;;;;;6299179;22;19918;-94
2021/12/21 22:40:01;;;;;;;;;;;;;;;;;;;;;
2021/12/21 22:42:59;;;;;;;;;;;-3.20;99.90;;;;;;6325453;22;20387;-92
2021/12/21 22:45:34;;;;;;;;;;;-3.30;99.90;;;;;;6298382;22;19942;-91
2021/12/21 22:51:33;;;;;;;;;;;;;;;;;;;;;
2021/12/21 22:54:06;;;;;;;;;;;-3.20;99.90;;;;;;6171330;23;19923;-92
2021/12/21 22:56:42;;;;;;;;;;;-3.40;99.90;;;;;;6253489;22;19926;-91
2021/12/21 22:59:29;;;;;;;;;;;-2.90;99.90;;;;;;6277211;22;19903;-92
2021/12/21 23:02:04;;;;;;;;;;;;;;;;;;;;;
2021/12/21 23:04:40;;;;;;;;;;;-1.30;99.90;;;;;;6284293;22;19922;-91
2021/12/21 23:07:05;;;;;;;;;;;-3.00;99.90;;;;;;6256486;22;20006;-89
2021/12/21 23:09:34;;;;;;;;;;;-1.80;99.90;;;;;;6305912;22;19950;-89
2021/12/21 23:11:59;;;;;;;;;;;-3.20;99.90;;;;;;6256727;22;20391;-89
2021/12/21 23:14:25;;;;;;;;;;;-3.00;99.90;;;;;;6255486;22;19915;-89
2021/12/21 23:16:53;;;;;;;;;;;-3.10;99.90;;;;;;6256093;22;20328;-89
2021/12/21 23:19:21;;;;;;;;;;;-2.60;99.90;;;;;;6256283;22;19951;-88
2021/12/21 23:21:47;;;;;;;;;;;-3.30;99.90;;;;;;6281710;22;19994;-89
2021/12/21 23:24:15;;;;;;;;;;;-3.50;99.90;;;;;;6256035;22;19919;-89
2021/12/21 23:26:41;;;;;;;;;;;-3.20;99.90;;;;;;6256833;22;20320;-89
2021/12/21 23:29:10;;;;;;;;;;;-3.10;99.90;;;;;;6255868;22;20334;-89
2021/12/21 23:31:35;;;;;;;;;;;-3.60;99.90;;;;;;6255756;22;20015;-89
2021/12/21 23:34:03;;;;;;;;;;;-3.40;99.90;;;;;;6254927;22;19918;-89
2021/12/21 23:36:29;;;;;;;;;;;-3.60;99.90;;;;;;6282914;22;19926;-89
2021/12/21 23:38:55;;;;;;;;;;;-3.60;99.90;;;;;;6255672;22;19989;-89
2021/12/21 23:41:23;;;;;;;;;;;-3.90;99.90;;;;;;6281708;22;19922;-89
2021/12/21 23:43:50;;;;;;;;;;;-3.40;99.90;;;;;;6281824;22;19922;-88
2021/12/21 23:46:16;;;;;;;;;;;-3.60;99.90;;;;;;6255933;22;19941;-88
2021/12/21 23:48:41;;;;;;;;;;;-3.50;99.90;;;;;;6281165;22;19915;-88
2021/12/21 23:51:10;;;;;;;;;;;-3.60;99.90;;;;;;6255587;22;19922;-89
2021/12/21 23:53:35;;;;;;;;;;;-3.50;99.90;;;;;;6281110;22;20323;-89
2021/12/21 23:56:03;;;;;;;;;;;-3.70;99.90;;;;;;6255468;22;19926;-89
2021/12/21 23:58:31;;;;;;;;;;;-3.60;99.90;;;;;;6256357;22;19922;-89
